sensor_id;sensor_type;location;lat;lon;timestamp;pressure;altitude;pressure_sealevel;temperature;humidity
78625;BME280;67944;0.000;0.000;2024-01-15T00:02:09;99715.16;;;16.30;27.97
78625;BME280;67944;0.000;0.000;2024-01-15T00:04:39;99708.09;;;16.30;28.11
78625;BME280;67944;0.000;0.000;2024-01-15T00:07:09;99704.63;;;16.30;27.73
78625;BME280;67944;0.000;0.000;2024-01-15T00:09:35;99699.38;;;16.30;27.56
78625;BME280;67944;0.000;0.000;2024-01-15T00:12:01;99689.03;;;16.28;28.13
78625;BME280;67944;0.000;0.000;2024-01-15T00:14:27;99693.31;;;16.29;27.74
78625;BME280;67944;0.000;0.000;2024-01-15T00:16:53;99693.31;;;16.29;28.19
78625;BME280;67944;0.000;0.000;2024-01-15T00:19:21;99695.94;;;16.29;27.63
78625;BME280;67944;0.000;0.000;2024-01-15T00:21:47;99681.97;;;16.29;28.17
78625;BME280;67944;0.000;0.000;2024-01-15T00:24:13;99687.22;;;16.29;27.98
78625;BME280;67944;0.000;0.000;2024-01-15T00:26:39;99692.50;;;16.29;27.74
78625;BME280;67944;0.000;0.000;2024-01-15T00:29:06;99683.63;;;16.30;28.16
78625;BME280;67944;0.000;0.000;2024-01-15T00:31:32;99678.38;;;16.30;27.75
78625;BME280;67944;0.000;0.000;2024-01-15T00:33:57;99667.84;;;16.30;27.49
78625;BME280;67944;0.000;0.000;2024-01-15T00:36:23;99668.69;;;16.30;27.94
78625;BME280;67944;0.000;0.000;2024-01-15T00:38:48;99673.94;;;16.30;28.11
78625;BME280;67944;0.000;0.000;2024-01-15T00:41:14;99670.47;;;16.30;27.72
78625;BME280;67944;0.000;0.000;2024-01-15T00:43:40;99673.94;;;16.30;27.93
78625;BME280;67944;0.000;0.000;2024-01-15T00:46:05;99674.09;;;16.29;27.83
78625;BME280;67944;0.000;0.000;2024-01-15T00:48:31;99660.97;;;16.29;27.46
78625;BME280;67944;0.000;0.000;2024-01-15T00:50:57;99659.97;;;16.30;27.86
78625;BME280;67944;0.000;0.000;2024-01-15T00:53:22;99662.59;;;16.30;27.77
78625;BME280;67944;0.000;0.000;2024-01-15T00:55:48;99675.75;;;16.30;27.95
78625;BME280;67944;0.000;0.000;2024-01-15T00:58:14;99658.34;;;16.29;28.18
78625;BME280;67944;0.000;0.000;2024-01-15T01:00:39;99653.91;;;16.29;27.68
78625;BME280;67944;0.000;0.000;2024-01-15T01:03:06;99654.06;;;16.28;27.89
78625;BME280;67944;0.000;0.000;2024-01-15T01:05:33;99655.88;;;16.27;27.66
78625;BME280;67944;0.000;0.000;2024-01-15T01:07:59;99654.06;;;16.28;27.54
78625;BME280;67944;0.000;0.000;2024-01-15T01:10:24;99656.53;;;16.29;28.27
78625;BME280;67944;0.000;0.000;2024-01-15T01:12:50;99647.00;;;16.28;27.58
78625;BME280;67944;0.000;0.000;2024-01-15T01:15:15;99656.69;;;16.28;28.06
78625;BME280;67944;0.000;0.000;2024-01-15T01:17:41;99647.19;;;16.27;27.65
78625;BME280;67944;0.000;0.000;2024-01-15T01:20:07;99641.94;;;16.27;28.19
78625;BME280;67944;0.000;0.000;2024-01-15T01:22:34;99641.09;;;16.26;27.95
78625;BME280;67944;0.000;0.000;2024-01-15T01:25:00;99649.81;;;16.27;27.76
78625;BME280;67944;0.000;0.000;2024-01-15T01:27:26;99648.16;;;16.26;27.96
78625;BME280;67944;0.000;0.000;2024-01-15T01:29:51;99646.53;;;16.25;27.52
78625;BME280;67944;0.000;0.000;2024-01-15T01:32:17;99644.72;;;16.25;28.01
78625;BME280;67944;0.000;0.000;2024-01-15T01:34:42;99645.53;;;16.26;27.79
78625;BME280;67944;0.000;0.000;2024-01-15T01:37:09;99641.94;;;16.27;27.80
78625;BME280;67944;0.000;0.000;2024-01-15T01:39:35;99646.19;;;16.28;27.73
78625;BME280;67944;0.000;0.000;2024-01-15T01:42:00;99648.81;;;16.28;27.79
78625;BME280;67944;0.000;0.000;2024-01-15T01:44:26;99639.94;;;16.29;27.66
78625;BME280;67944;0.000;0.000;2024-01-15T01:46:52;99650.28;;;16.30;27.84
78625;BME280;67944;0.000;0.000;2024-01-15T01:49:18;99639.78;;;16.30;27.60
78625;BME280;67944;0.000;0.000;2024-01-15T01:51:44;99638.97;;;16.30;28.01
78625;BME280;67944;0.000;0.000;2024-01-15T01:54:11;99639.94;;;16.29;27.63
78625;BME280;67944;0.000;0.000;2024-01-15T01:56:40;99635.50;;;16.29;27.87
78625;BME280;67944;0.000;0.000;2024-01-15T01:59:07;99642.41;;;16.30;27.73
78625;BME280;67944;0.000;0.000;2024-01-15T02:01:35;99641.25;;;16.33;27.79
78625;BME280;67944;0.000;0.000;2024-01-15T02:04:01;99645.50;;;16.34;27.96
78625;BME280;67944;0.000;0.000;2024-01-15T02:06:27;99645.00;;;16.38;28.03
78625;BME280;67944;0.000;0.000;2024-01-15T02:08:53;99648.75;;;16.44;27.62
78625;BME280;67944;0.000;0.000;2024-01-15T02:11:18;99644.59;;;16.50;27.71
78625;BME280;67944;0.000;0.000;2024-01-15T02:13:44;99645.72;;;16.55;27.92
78625;BME280;67944;0.000;0.000;2024-01-15T02:16:10;99645.03;;;16.61;27.99
78625;BME280;67944;0.000;0.000;2024-01-15T02:18:42;99637.94;;;16.70;27.43
78625;BME280;67944;0.000;0.000;2024-01-15T02:21:09;99643.47;;;16.75;27.78
78625;BME280;67944;0.000;0.000;2024-01-15T02:23:34;99644.44;;;16.82;27.63
78625;BME280;67944;0.000;0.000;2024-01-15T02:26:01;99642.53;;;16.91;27.47
78625;BME280;67944;0.000;0.000;2024-01-15T02:28:26;99645.47;;;16.96;27.44
78625;BME280;67944;0.000;0.000;2024-01-15T02:30:52;99649.03;;;17.03;27.08
78625;BME280;67944;0.000;0.000;2024-01-15T02:33:17;99641.28;;;17.09;27.30
78625;BME280;67944;0.000;0.000;2024-01-15T02:35:43;99631.81;;;17.15;27.27
78625;BME280;67944;0.000;0.000;2024-01-15T02:38:08;99617.97;;;17.21;27.54
78625;BME280;67944;0.000;0.000;2024-01-15T02:40:34;99639.31;;;17.26;27.30
78625;BME280;67944;0.000;0.000;2024-01-15T02:43:00;99636.97;;;17.31;27.15
78625;BME280;67944;0.000;0.000;2024-01-15T02:45:27;99632.78;;;17.37;27.39
78625;BME280;67944;0.000;0.000;2024-01-15T02:47:52;99640.78;;;17.43;27.42
78625;BME280;67944;0.000;0.000;2024-01-15T02:50:18;99627.91;;;17.48;26.81
78625;BME280;67944;0.000;0.000;2024-01-15T02:52:43;99627.38;;;17.53;27.05
78625;BME280;67944;0.000;0.000;2024-01-15T02:55:09;99632.91;;;17.58;26.98
78625;BME280;67944;0.000;0.000;2024-01-15T02:57:34;99629.72;;;17.63;26.98
78625;BME280;67944;0.000;0.000;2024-01-15T03:00:00;99627.41;;;17.68;26.87
78625;BME280;67944;0.000;0.000;2024-01-15T03:02:25;99614.53;;;17.73;26.63
78625;BME280;67944;0.000;0.000;2024-01-15T03:04:51;99611.31;;;17.77;26.88
78625;BME280;67944;0.000;0.000;2024-01-15T03:07:17;99618.84;;;17.80;26.49
78625;BME280;67944;0.000;0.000;2024-01-15T03:09:42;99619.94;;;17.86;26.87
78625;BME280;67944;0.000;0.000;2024-01-15T03:12:08;99626.50;;;17.90;26.45
78625;BME280;67944;0.000;0.000;2024-01-15T03:14:33;99627.59;;;17.96;26.28
78625;BME280;67944;0.000;0.000;2024-01-15T03:16:59;99625.38;;;17.99;26.39
78625;BME280;67944;0.000;0.000;2024-01-15T03:19:26;99615.13;;;18.04;26.21
78625;BME280;67944;0.000;0.000;2024-01-15T03:21:51;99613.94;;;18.07;26.67
78625;BME280;67944;0.000;0.000;2024-01-15T03:24:17;99620.47;;;18.11;26.46
78625;BME280;67944;0.000;0.000;2024-01-15T03:26:42;99619.09;;;18.15;26.51
78625;BME280;67944;0.000;0.000;2024-01-15T03:29:07;99609.81;;;18.19;26.35
78625;BME280;67944;0.000;0.000;2024-01-15T03:31:33;99615.53;;;18.23;26.06
78625;BME280;67944;0.000;0.000;2024-01-15T03:33:58;99621.25;;;18.26;25.87
78625;BME280;67944;0.000;0.000;2024-01-15T03:36:24;99617.25;;;18.30;25.91
78625;BME280;67944;0.000;0.000;2024-01-15T03:38:49;99612.44;;;18.34;26.46
78625;BME280;67944;0.000;0.000;2024-01-15T03:41:15;99606.78;;;18.37;26.26
78625;BME280;67944;0.000;0.000;2024-01-15T03:43:40;99622.25;;;18.40;26.27
78625;BME280;67944;0.000;0.000;2024-01-15T03:46:06;99624.47;;;18.43;26.30
78625;BME280;67944;0.000;0.000;2024-01-15T03:48:32;99617.00;;;18.46;26.21
78625;BME280;67944;0.000;0.000;2024-01-15T03:50:57;99613.00;;;18.50;26.23
78625;BME280;67944;0.000;0.000;2024-01-15T03:53:23;99613.47;;;18.54;26.12
78625;BME280;67944;0.000;0.000;2024-01-15T03:55:49;99599.09;;;18.57;26.27
78625;BME280;67944;0.000;0.000;2024-01-15T03:58:15;99586.38;;;18.60;25.73
78625;BME280;67944;0.000;0.000;2024-01-15T04:00:41;99576.25;;;18.64;26.00
78625;BME280;67944;0.000;0.000;2024-01-15T04:03:07;99572.41;;;18.66;25.48
78625;BME280;67944;0.000;0.000;2024-01-15T04:05:32;99582.59;;;18.69;25.55
78625;BME280;67944;0.000;0.000;2024-01-15T04:07:58;99570.03;;;18.71;26.05
78625;BME280;67944;0.000;0.000;2024-01-15T04:10:23;99567.03;;;18.74;25.35
78625;BME280;67944;0.000;0.000;2024-01-15T04:12:49;99564.81;;;18.78;25.66
78625;BME280;67944;0.000;0.000;2024-01-15T04:15:15;99562.00;;;18.79;25.37
78625;BME280;67944;0.000;0.000;2024-01-15T04:17:40;99554.53;;;18.83;25.42
78625;BME280;67944;0.000;0.000;2024-01-15T04:20:06;99563.03;;;18.85;25.34
78625;BME280;67944;0.000;0.000;2024-01-15T04:22:33;99560.84;;;18.89;25.76
78625;BME280;67944;0.000;0.000;2024-01-15T04:24:58;99561.47;;;18.91;25.38
78625;BME280;67944;0.000;0.000;2024-01-15T04:27:24;99563.91;;;18.92;25.51
78625;BME280;67944;0.000;0.000;2024-01-15T04:29:49;99557.44;;;18.95;25.77
78625;BME280;67944;0.000;0.000;2024-01-15T04:32:15;99549.34;;;18.96;25.24
78625;BME280;67944;0.000;0.000;2024-01-15T04:34:40;99539.97;;;18.94;25.42
78625;BME280;67944;0.000;0.000;2024-01-15T04:37:06;99546.84;;;18.88;24.93
78625;BME280;67944;0.000;0.000;2024-01-15T04:39:31;99540.91;;;18.79;24.85
78625;BME280;67944;0.000;0.000;2024-01-15T04:41:57;99532.91;;;18.73;24.71
78625;BME280;67944;0.000;0.000;2024-01-15T04:44:22;99526.56;;;18.67;25.04
78625;BME280;67944;0.000;0.000;2024-01-15T04:46:48;99530.41;;;18.65;24.85
78625;BME280;67944;0.000;0.000;2024-01-15T04:49:13;99548.25;;;18.63;24.73
78625;BME280;67944;0.000;0.000;2024-01-15T04:51:39;99541.78;;;18.65;24.44
78625;BME280;67944;0.000;0.000;2024-01-15T04:54:04;99555.41;;;18.69;24.84
78625;BME280;67944;0.000;0.000;2024-01-15T04:56:29;99548.75;;;18.73;24.53
78625;BME280;67944;0.000;0.000;2024-01-15T04:58:55;99558.09;;;18.75;25.01
78625;BME280;67944;0.000;0.000;2024-01-15T05:01:20;99548.00;;;18.79;24.84
78625;BME280;67944;0.000;0.000;2024-01-15T05:03:46;99551.88;;;18.83;25.16
78625;BME280;67944;0.000;0.000;2024-01-15T05:06:11;99545.00;;;18.89;24.37
78625;BME280;67944;0.000;0.000;2024-01-15T05:08:37;99542.63;;;18.94;24.79
78625;BME280;67944;0.000;0.000;2024-01-15T05:11:02;99538.41;;;18.99;24.51
78625;BME280;67944;0.000;0.000;2024-01-15T05:13:28;99542.91;;;19.05;24.86
78625;BME280;67944;0.000;0.000;2024-01-15T05:15:53;99533.59;;;19.09;24.61
78625;BME280;67944;0.000;0.000;2024-01-15T05:18:19;99538.94;;;19.16;24.32
78625;BME280;67944;0.000;0.000;2024-01-15T05:20:44;99542.63;;;19.22;24.42
78625;BME280;67944;0.000;0.000;2024-01-15T05:23:10;99540.00;;;19.28;24.84
78625;BME280;67944;0.000;0.000;2024-01-15T05:25:35;99532.31;;;19.33;24.88
78625;BME280;67944;0.000;0.000;2024-01-15T05:28:01;99535.41;;;19.37;24.67
78625;BME280;67944;0.000;0.000;2024-01-15T05:30:27;99530.97;;;19.44;24.60
78625;BME280;67944;0.000;0.000;2024-01-15T05:32:53;99529.34;;;19.49;24.48
78625;BME280;67944;0.000;0.000;2024-01-15T05:35:18;99530.63;;;19.54;24.77
78625;BME280;67944;0.000;0.000;2024-01-15T05:37:45;99524.78;;;19.58;23.96
78625;BME280;67944;0.000;0.000;2024-01-15T05:40:12;99520.53;;;19.64;24.21
78625;BME280;67944;0.000;0.000;2024-01-15T05:42:39;99525.25;;;19.68;23.90
78625;BME280;67944;0.000;0.000;2024-01-15T05:45:05;99524.63;;;19.73;24.11
78625;BME280;67944;0.000;0.000;2024-01-15T05:47:31;99515.28;;;19.77;24.71
78625;BME280;67944;0.000;0.000;2024-01-15T05:49:57;99512.88;;;19.82;24.51
78625;BME280;67944;0.000;0.000;2024-01-15T05:52:23;99506.59;;;19.83;24.48
78625;BME280;67944;0.000;0.000;2024-01-15T05:54:49;99511.91;;;19.90;23.92
78625;BME280;67944;0.000;0.000;2024-01-15T05:57:15;99527.13;;;19.94;23.91
78625;BME280;67944;0.000;0.000;2024-01-15T05:59:42;99520.25;;;20.00;23.81
78625;BME280;67944;0.000;0.000;2024-01-15T06:02:08;99522.31;;;20.04;23.92
78625;BME280;67944;0.000;0.000;2024-01-15T06:04:33;99518.06;;;20.10;23.90
78625;BME280;67944;0.000;0.000;2024-01-15T06:06:59;99515.59;;;20.15;24.49
78625;BME280;67944;0.000;0.000;2024-01-15T06:09:24;99509.72;;;20.19;23.76
78625;BME280;67944;0.000;0.000;2024-01-15T06:11:49;99522.34;;;20.24;24.13
78625;BME280;67944;0.000;0.000;2024-01-15T06:14:15;99512.81;;;20.30;24.41
78625;BME280;67944;0.000;0.000;2024-01-15T06:16:40;99521.16;;;20.33;24.47
78625;BME280;67944;0.000;0.000;2024-01-15T06:19:06;99518.72;;;20.38;23.95
78625;BME280;67944;0.000;0.000;2024-01-15T06:21:31;99517.50;;;20.41;24.32
78625;BME280;67944;0.000;0.000;2024-01-15T06:23:57;99515.91;;;20.46;24.50
78625;BME280;67944;0.000;0.000;2024-01-15T06:26:23;99510.22;;;20.49;23.90
78625;BME280;67944;0.000;0.000;2024-01-15T06:28:48;99512.25;;;20.54;24.00
78625;BME280;67944;0.000;0.000;2024-01-15T06:31:14;99513.44;;;20.58;24.44
78625;BME280;67944;0.000;0.000;2024-01-15T06:33:39;99517.31;;;20.62;23.95
78625;BME280;67944;0.000;0.000;2024-01-15T06:36:05;99519.38;;;20.67;24.38
78625;BME280;67944;0.000;0.000;2024-01-15T06:38:31;99510.81;;;20.71;23.57
78625;BME280;67944;0.000;0.000;2024-01-15T06:40:57;99498.63;;;20.77;24.07
78625;BME280;67944;0.000;0.000;2024-01-15T06:43:22;99514.88;;;20.80;23.95
78625;BME280;67944;0.000;0.000;2024-01-15T06:45:48;99508.16;;;20.84;24.08
78625;BME280;67944;0.000;0.000;2024-01-15T06:48:13;99515.28;;;20.91;24.41
78625;BME280;67944;0.000;0.000;2024-01-15T06:50:41;99513.88;;;20.95;23.89
78625;BME280;67944;0.000;0.000;2024-01-15T06:53:07;99515.09;;;20.99;23.82
78625;BME280;67944;0.000;0.000;2024-01-15T06:55:32;99517.09;;;21.03;24.31
78625;BME280;67944;0.000;0.000;2024-01-15T06:57:58;99503.25;;;21.08;24.08
78625;BME280;67944;0.000;0.000;2024-01-15T07:00:23;99509.75;;;21.12;24.14
78625;BME280;67944;0.000;0.000;2024-01-15T07:02:49;99515.25;;;21.17;23.62
78625;BME280;67944;0.000;0.000;2024-01-15T07:05:14;99505.91;;;21.21;24.44
78625;BME280;67944;0.000;0.000;2024-01-15T07:07:40;99508.13;;;21.24;24.19
78625;BME280;67944;0.000;0.000;2024-01-15T07:10:06;99507.72;;;21.27;23.69
78625;BME280;67944;0.000;0.000;2024-01-15T07:12:32;99501.00;;;21.31;24.04
78625;BME280;67944;0.000;0.000;2024-01-15T07:14:58;99500.38;;;21.36;23.94
78625;BME280;67944;0.000;0.000;2024-01-15T07:17:23;99500.78;;;21.39;23.64
78625;BME280;67944;0.000;0.000;2024-01-15T07:19:48;99507.28;;;21.43;23.68
78625;BME280;67944;0.000;0.000;2024-01-15T07:22:14;99511.13;;;21.47;23.85
78625;BME280;67944;0.000;0.000;2024-01-15T07:24:43;99514.16;;;21.51;24.31
78625;BME280;67944;0.000;0.000;2024-01-15T07:27:08;99518.84;;;21.55;24.08
78625;BME280;67944;0.000;0.000;2024-01-15T07:29:34;99513.75;;;21.61;24.25
78625;BME280;67944;0.000;0.000;2024-01-15T07:32:03;99514.94;;;21.65;23.70
78625;BME280;67944;0.000;0.000;2024-01-15T07:34:29;99520.41;;;21.70;24.12
78625;BME280;67944;0.000;0.000;2024-01-15T07:36:55;99508.38;;;21.74;24.23
78625;BME280;67944;0.000;0.000;2024-01-15T07:39:20;99513.88;;;21.79;24.03
78625;BME280;67944;0.000;0.000;2024-01-15T07:41:47;99504.69;;;21.81;23.72
78625;BME280;67944;0.000;0.000;2024-01-15T07:44:13;99504.25;;;21.84;24.13
78625;BME280;67944;0.000;0.000;2024-01-15T07:46:38;99502.22;;;21.86;23.89
78625;BME280;67944;0.000;0.000;2024-01-15T07:49:05;99484.22;;;21.88;24.03
78625;BME280;67944;0.000;0.000;2024-01-15T07:51:30;99499.94;;;21.90;24.02
78625;BME280;67944;0.000;0.000;2024-01-15T07:53:56;99490.75;;;21.93;23.76
78625;BME280;67944;0.000;0.000;2024-01-15T07:56:22;99488.47;;;21.96;24.03
78625;BME280;67944;0.000;0.000;2024-01-15T07:58:47;99482.16;;;21.97;24.08
78625;BME280;67944;0.000;0.000;2024-01-15T08:01:13;99484.00;;;21.97;23.76
78625;BME280;67944;0.000;0.000;2024-01-15T08:03:38;99477.88;;;21.96;23.94
78625;BME280;67944;0.000;0.000;2024-01-15T08:06:05;99472.38;;;21.98;23.89
78625;BME280;67944;0.000;0.000;2024-01-15T08:08:31;99472.78;;;22.01;23.85
78625;BME280;67944;0.000;0.000;2024-01-15T08:10:56;99471.56;;;22.04;23.88
78625;BME280;67944;0.000;0.000;2024-01-15T08:13:22;99476.44;;;22.07;23.86
78625;BME280;67944;0.000;0.000;2024-01-15T08:15:47;99473.56;;;22.08;23.95
78625;BME280;67944;0.000;0.000;2024-01-15T08:18:13;99464.34;;;22.11;23.84
78625;BME280;67944;0.000;0.000;2024-01-15T08:20:39;99468.41;;;22.13;23.84
78625;BME280;67944;0.000;0.000;2024-01-15T08:23:04;99453.91;;;22.16;23.84
78625;BME280;67944;0.000;0.000;2024-01-15T08:25:30;99452.69;;;22.18;23.96
78625;BME280;67944;0.000;0.000;2024-01-15T08:27:56;99460.22;;;22.21;23.83
78625;BME280;67944;0.000;0.000;2024-01-15T08:30:22;99465.09;;;22.25;24.00
78625;BME280;67944;0.000;0.000;2024-01-15T08:32:51;99458.75;;;22.26;23.91
78625;BME280;67944;0.000;0.000;2024-01-15T08:35:17;99466.50;;;22.27;23.76
78625;BME280;67944;0.000;0.000;2024-01-15T08:37:42;99464.19;;;22.31;23.81
78625;BME280;67944;0.000;0.000;2024-01-15T08:40:08;99466.44;;;22.34;23.85
78625;BME280;67944;0.000;0.000;2024-01-15T08:42:33;99466.00;;;22.37;23.82
78625;BME280;67944;0.000;0.000;2024-01-15T08:44:59;99473.53;;;22.40;24.03
78625;BME280;67944;0.000;0.000;2024-01-15T08:47:24;99470.44;;;22.43;24.01
78625;BME280;67944;0.000;0.000;2024-01-15T08:49:51;99468.41;;;22.45;24.02
78625;BME280;67944;0.000;0.000;2024-01-15T08:52:16;99467.16;;;22.47;23.82
78625;BME280;67944;0.000;0.000;2024-01-15T08:54:42;99465.91;;;22.50;23.78
78625;BME280;67944;0.000;0.000;2024-01-15T08:57:07;99469.94;;;22.52;23.88
78625;BME280;67944;0.000;0.000;2024-01-15T08:59:32;99466.88;;;22.55;23.78
78625;BME280;67944;0.000;0.000;2024-01-15T09:01:58;99475.44;;;22.57;23.85
78625;BME280;67944;0.000;0.000;2024-01-15T09:04:23;99466.22;;;22.60;24.00
78625;BME280;67944;0.000;0.000;2024-01-15T09:06:49;99466.81;;;22.62;23.94
78625;BME280;67944;0.000;0.000;2024-01-15T09:09:15;99462.91;;;22.65;23.74
78625;BME280;67944;0.000;0.000;2024-01-15T09:11:41;99455.56;;;22.67;23.86
78625;BME280;67944;0.000;0.000;2024-01-15T09:14:07;99456.97;;;22.69;23.72
78625;BME280;67944;0.000;0.000;2024-01-15T09:16:33;99445.09;;;22.72;23.84
78625;BME280;67944;0.000;0.000;2024-01-15T09:18:58;99456.28;;;22.74;24.13
78625;BME280;67944;0.000;0.000;2024-01-15T09:21:24;99456.69;;;22.77;24.04
78625;BME280;67944;0.000;0.000;2024-01-15T09:23:50;99464.22;;;22.80;23.91
78625;BME280;67944;0.000;0.000;2024-01-15T09:26:15;99461.13;;;22.83;24.01
78625;BME280;67944;0.000;0.000;2024-01-15T09:28:41;99469.47;;;22.87;24.09
78625;BME280;67944;0.000;0.000;2024-01-15T09:31:07;99463.53;;;22.92;23.94
78625;BME280;67944;0.000;0.000;2024-01-15T09:33:32;99469.44;;;22.94;24.09
78625;BME280;67944;0.000;0.000;2024-01-15T09:36:02;99474.28;;;22.97;24.10
78625;BME280;67944;0.000;0.000;2024-01-15T09:38:29;99481.00;;;22.99;23.85
78625;BME280;67944;0.000;0.000;2024-01-15T09:40:55;99478.13;;;23.01;23.76
78625;BME280;67944;0.000;0.000;2024-01-15T09:43:21;99485.66;;;23.04;23.97
78625;BME280;67944;0.000;0.000;2024-01-15T09:45:50;99483.38;;;23.07;24.06
78625;BME280;67944;0.000;0.000;2024-01-15T09:48:16;99479.47;;;23.10;23.77
78625;BME280;67944;0.000;0.000;2024-01-15T09:50:42;99480.88;;;23.12;24.09
78625;BME280;67944;0.000;0.000;2024-01-15T09:53:09;99485.75;;;23.15;23.75
78625;BME280;67944;0.000;0.000;2024-01-15T09:55:36;99474.66;;;23.18;23.71
78625;BME280;67944;0.000;0.000;2024-01-15T09:58:03;99466.25;;;23.21;24.08
78625;BME280;67944;0.000;0.000;2024-01-15T10:00:29;99462.94;;;23.26;23.98
78625;BME280;67944;0.000;0.000;2024-01-15T10:02:56;99460.88;;;23.28;23.67
78625;BME280;67944;0.000;0.000;2024-01-15T10:05:22;99463.09;;;23.31;23.61
78625;BME280;67944;0.000;0.000;2024-01-15T10:07:48;99461.84;;;23.34;23.75
78625;BME280;67944;0.000;0.000;2024-01-15T10:10:15;99453.66;;;23.35;24.11
78625;BME280;67944;0.000;0.000;2024-01-15T10:12:42;99457.94;;;23.36;23.67
78625;BME280;67944;0.000;0.000;2024-01-15T10:15:10;99453.22;;;23.38;23.97
78625;BME280;67944;0.000;0.000;2024-01-15T10:17:38;99461.75;;;23.40;23.89
78625;BME280;67944;0.000;0.000;2024-01-15T10:20:11;99449.03;;;23.42;24.25
78625;BME280;67944;0.000;0.000;2024-01-15T10:22:43;99455.97;;;23.43;24.01
78625;BME280;67944;0.000;0.000;2024-01-15T10:25:15;99452.88;;;23.46;23.99
78625;BME280;67944;0.000;0.000;2024-01-15T10:27:41;99456.13;;;23.48;23.80
78625;BME280;67944;0.000;0.000;2024-01-15T10:30:10;99439.97;;;23.50;24.05
78625;BME280;67944;0.000;0.000;2024-01-15T10:32:36;99432.63;;;23.52;23.68
78625;BME280;67944;0.000;0.000;2024-01-15T10:35:01;99435.84;;;23.54;24.12
78625;BME280;67944;0.000;0.000;2024-01-15T10:37:27;99438.28;;;23.55;23.70
78625;BME280;67944;0.000;0.000;2024-01-15T10:39:53;99436.22;;;23.57;23.49
78625;BME280;67944;0.000;0.000;2024-01-15T10:42:18;99431.25;;;23.61;23.78
78625;BME280;67944;0.000;0.000;2024-01-15T10:44:44;99428.38;;;23.63;23.82
78625;BME280;67944;0.000;0.000;2024-01-15T10:47:12;99422.59;;;23.66;23.75
78625;BME280;67944;0.000;0.000;2024-01-15T10:49:38;99431.16;;;23.68;23.85
78625;BME280;67944;0.000;0.000;2024-01-15T10:52:05;99422.75;;;23.71;23.89
78625;BME280;67944;0.000;0.000;2024-01-15T10:54:32;99415.34;;;23.73;23.69
78625;BME280;67944;0.000;0.000;2024-01-15T10:56:59;99415.94;;;23.75;23.48
78625;BME280;67944;0.000;0.000;2024-01-15T10:59:25;99409.59;;;23.76;23.19
78625;BME280;67944;0.000;0.000;2024-01-15T11:01:51;99405.69;;;23.78;23.92
78625;BME280;67944;0.000;0.000;2024-01-15T11:04:21;99408.09;;;23.80;23.76
78625;BME280;67944;0.000;0.000;2024-01-15T11:06:51;99403.34;;;23.82;23.53
78625;BME280;67944;0.000;0.000;2024-01-15T11:09:17;99396.19;;;23.82;23.36
78625;BME280;67944;0.000;0.000;2024-01-15T11:11:47;99389.59;;;23.85;23.50
78625;BME280;67944;0.000;0.000;2024-01-15T11:14:33;99398.16;;;23.87;23.22
78625;BME280;67944;0.000;0.000;2024-01-15T11:16:59;99408.81;;;23.87;23.90
78625;BME280;67944;0.000;0.000;2024-01-15T11:19:25;99394.47;;;23.88;23.11
78625;BME280;67944;0.000;0.000;2024-01-15T11:21:50;99398.75;;;23.89;23.15
78625;BME280;67944;0.000;0.000;2024-01-15T11:24:39;99394.47;;;23.88;23.82
78625;BME280;67944;0.000;0.000;2024-01-15T11:27:05;99396.09;;;23.89;23.62
78625;BME280;67944;0.000;0.000;2024-01-15T11:29:34;99400.16;;;23.91;23.30
78625;BME280;67944;0.000;0.000;2024-01-15T11:32:02;99398.31;;;23.92;23.39
78625;BME280;67944;0.000;0.000;2024-01-15T11:37:23;99396.91;;;23.89;23.09
78625;BME280;67944;0.000;0.000;2024-01-15T11:39:54;99392.84;;;23.87;23.06
78625;BME280;67944;0.000;0.000;2024-01-15T11:42:22;99387.97;;;23.84;23.22
78625;BME280;67944;0.000;0.000;2024-01-15T11:44:49;99387.16;;;23.83;22.77
78625;BME280;67944;0.000;0.000;2024-01-15T11:47:15;99387.97;;;23.84;23.15
78625;BME280;67944;0.000;0.000;2024-01-15T11:49:59;99384.88;;;23.87;22.72
78625;BME280;67944;0.000;0.000;2024-01-15T11:52:39;99393.88;;;23.86;23.48
78625;BME280;67944;0.000;0.000;2024-01-15T11:55:22;99382.56;;;23.79;23.27
78625;BME280;67944;0.000;0.000;2024-01-15T11:57:51;99390.97;;;23.76;22.99
78625;BME280;67944;0.000;0.000;2024-01-15T12:00:17;99394.69;;;23.75;22.74
78625;BME280;67944;0.000;0.000;2024-01-15T12:02:44;99389.72;;;23.78;23.43
78625;BME280;67944;0.000;0.000;2024-01-15T12:05:13;99392.72;;;23.82;23.05
78625;BME280;67944;0.000;0.000;2024-01-15T12:07:42;99398.97;;;23.87;22.76
78625;BME280;67944;0.000;0.000;2024-01-15T12:10:13;99395.63;;;23.92;23.00
78625;BME280;67944;0.000;0.000;2024-01-15T12:12:58;99398.44;;;23.97;22.76
78625;BME280;67944;0.000;0.000;2024-01-15T12:15:28;99395.31;;;24.00;23.15
78625;BME280;67944;0.000;0.000;2024-01-15T12:17:58;99399.13;;;24.04;23.34
78625;BME280;67944;0.000;0.000;2024-01-15T12:20:25;99400.28;;;24.08;23.46
78625;BME280;67944;0.000;0.000;2024-01-15T12:22:50;99403.31;;;24.12;23.26
78625;BME280;67944;0.000;0.000;2024-01-15T12:25:16;99394.06;;;24.14;23.22
78625;BME280;67944;0.000;0.000;2024-01-15T12:27:42;99387.47;;;24.17;23.36
78625;BME280;67944;0.000;0.000;2024-01-15T12:30:11;99386.22;;;24.19;22.51
78625;BME280;67944;0.000;0.000;2024-01-15T12:32:36;99386.56;;;24.23;22.61
78625;BME280;67944;0.000;0.000;2024-01-15T12:35:02;99379.97;;;24.25;23.16
78625;BME280;67944;0.000;0.000;2024-01-15T12:37:29;99376.28;;;24.26;22.70
78625;BME280;67944;0.000;0.000;2024-01-15T12:39:54;99376.41;;;24.32;22.60
78625;BME280;67944;0.000;0.000;2024-01-15T12:42:21;99379.41;;;24.35;22.84
78625;BME280;67944;0.000;0.000;2024-01-15T12:44:47;99372.00;;;24.37;22.70
78625;BME280;67944;0.000;0.000;2024-01-15T12:47:13;99372.81;;;24.38;23.17
78625;BME280;67944;0.000;0.000;2024-01-15T12:49:39;99376.06;;;24.40;22.57
78625;BME280;67944;0.000;0.000;2024-01-15T12:52:09;99392.84;;;24.40;22.88
78625;BME280;67944;0.000;0.000;2024-01-15T12:54:34;99387.28;;;24.42;22.90
78625;BME280;67944;0.000;0.000;2024-01-15T12:57:00;99391.59;;;24.43;22.42
78625;BME280;67944;0.000;0.000;2024-01-15T12:59:25;99387.06;;;24.43;22.89
78625;BME280;67944;0.000;0.000;2024-01-15T13:01:51;99382.56;;;24.44;22.53
78625;BME280;67944;0.000;0.000;2024-01-15T13:04:21;99386.03;;;24.44;22.49
78625;BME280;67944;0.000;0.000;2024-01-15T13:06:47;99382.56;;;24.44;23.59
78625;BME280;67944;0.000;0.000;2024-01-15T13:09:12;99392.97;;;24.45;23.32